Time,TemperatureF,DewpointF,PressureIn,WindDirection,WindDirectionDegrees,WindSpeedMPH,WindSpeedGustMPH,Humidity,HourlyPrecipIn,Conditions,Clouds,dailyrainin,SoftwareType,DateUTC
2013-02-14 00:01:00,43.2,39.0,30.18,WNW,285,0.0,0.0,85,0.00,,,0.00,WeatherTracker,2013-02-14 08:01:00,
2013-02-14 00:06:00,43.2,39.3,30.18,WNW,285,0.0,0.0,86,0.00,,,0.00,WeatherTracker,2013-02-14 08:06:00,
2013-02-14 00:11:00,43.1,38.9,30.18,WNW,285,0.0,0.0,85,0.00,,,0.00,WeatherTracker,2013-02-14 08:11:00,
2013-02-14 00:16:00,43.0,38.8,30.18,WNW,285,0.0,0.0,85,0.00,,,0.00,WeatherTracker,2013-02-14 08:16:00,
2013-02-14 00:21:00,42.9,39.0,30.18,WNW,285,0.0,0.0,86,0.00,,,0.00,WeatherTracker,2013-02-14 08:21:00,
2013-02-14 00:27:00,42.8,38.9,30.18,WNW,285,0.0,0.0,86,0.00,,,0.00,WeatherTracker,2013-02-14 08:27:00,
2013-02-14 00:32:00,42.8,38.9,30.19,WNW,285,0.0,0.0,86,0.00,,,0.00,WeatherTracker,2013-02-14 08:32:00,
2013-02-14 00:37:00,42.7,38.8,30.18,WNW,285,0.0,0.0,86,0.00,,,0.00,WeatherTracker,2013-02-14 08:37:00,
2013-02-14 00:42:00,42.6,38.7,30.19,WNW,285,0.0,0.0,86,0.00,,,0.00,WeatherTracker,2013-02-14 08:42:00,
2013-02-14 00:47:00,42.5,38.9,30.19,WNW,285,0.0,0.0,87,0.00,,,0.00,WeatherTracker,2013-02-14 08:47:00,
2013-02-14 00:52:00,42.5,38.9,30.19,WNW,285,0.0,0.0,87,0.00,,,0.00,WeatherTracker,2013-02-14 08:52:00,
2013-02-14 00:57:00,42.5,38.9,30.19,WNW,285,0.0,0.0,87,0.00,,,0.00,WeatherTracker,2013-02-14 08:57:00,
2013-02-14 01:02:00,42.5,38.9,30.19,WNW,285,0.0,0.0,87,0.00,,,0.00,WeatherTracker,2013-02-14 09:02:00,
2013-02-14 01:07:00,42.4,38.8,30.19,WNW,285,0.0,0.0,87,0.00,,,0.00,WeatherTracker,2013-02-14 09:07:00,
2013-02-14 01:12:00,42.3,38.7,30.19,WNW,285,0.0,0.0,87,0.00,,,0.00,WeatherTracker,2013-02-14 09:12:00,
2013-02-14 01:17:00,42.2,38.6,30.19,WNW,285,0.0,0.0,87,0.00,,,0.00,WeatherTracker,2013-02-14 09:17:00,
2013-02-14 01:22:00,42.2,38.6,30.19,WNW,285,0.0,0.0,87,0.00,,,0.00,WeatherTracker,2013-02-14 09:22:00,
2013-02-14 01:27:00,42.1,38.5,30.19,WNW,285,0.0,0.0,87,0.00,,,0.00,WeatherTracker,2013-02-14 09:27:00,
2013-02-14 01:32:00,42.0,38.4,30.19,WNW,285,0.0,0.0,87,0.00,,,0.00,WeatherTracker,2013-02-14 09:32:00,
2013-02-14 01:37:00,42.0,38.4,30.19,WNW,285,1.0,0.0,87,0.00,,,0.00,WeatherTracker,2013-02-14 09:37:00,
2013-02-14 01:42:00,41.9,38.3,30.19,WNW,285,0.0,0.0,87,0.00,,,0.00,WeatherTracker,2013-02-14 09:42:00,
2013-02-14 01:47:00,41.8,38.2,30.19,WNW,285,0.0,0.0,87,0.00,,,0.00,WeatherTracker,2013-02-14 09:47:00,
2013-02-14 01:52:00,41.8,38.2,30.20,WNW,285,0.0,0.0,87,0.00,,,0.00,WeatherTracker,2013-02-14 09:52:00,
2013-02-14 01:57:00,41.7,38.1,30.19,WNW,285,0.0,0.0,87,0.00,,,0.00,WeatherTracker,2013-02-14 09:57:00,
2013-02-14 02:02:00,41.7,38.1,30.19,WNW,285,0.0,0.0,87,0.00,,,0.00,WeatherTracker,2013-02-14 10:02:00,
2013-02-14 02:07:00,41.6,38.0,30.19,WNW,285,0.0,0.0,87,0.00,,,0.00,WeatherTracker,2013-02-14 10:07:00,
2013-02-14 02:12:00,41.5,37.9,30.20,WNW,285,0.0,0.0,87,0.00,,,0.00,WeatherTracker,2013-02-14 10:12:00,
2013-02-14 02:17:00,41.5,37.9,30.19,WNW,285,0.0,0.0,87,0.00,,,0.00,WeatherTracker,2013-02-14 10:17:00,
2013-02-14 02:22:00,41.3,38.0,30.19,WNW,285,0.0,0.0,88,0.00,,,0.00,WeatherTracker,2013-02-14 10:22:00,
2013-02-14 02:27:00,41.3,38.0,30.19,WNW,285,0.0,0.0,88,0.00,,,0.00,WeatherTracker,2013-02-14 10:27:00,
2013-02-14 02:32:00,41.2,37.9,30.19,WNW,285,1.0,0.0,88,0.00,,,0.00,WeatherTracker,2013-02-14 10:32:00,
2013-02-14 02:37:00,41.1,37.8,30.19,WNW,285,0.0,0.0,88,0.00,,,0.00,WeatherTracker,2013-02-14 10:37:00,
2013-02-14 02:43:00,41.1,38.1,30.19,WNW,285,0.0,0.0,89,0.00,,,0.00,WeatherTracker,2013-02-14 10:43:00,
2013-02-14 02:48:00,41.0,37.7,30.19,WNW,285,0.0,0.0,88,0.00,,,0.00,WeatherTracker,2013-02-14 10:48:00,
2013-02-14 02:53:00,40.9,37.6,30.19,WNW,285,0.0,0.0,88,0.00,,,0.00,WeatherTracker,2013-02-14 10:53:00,
2013-02-14 02:58:00,40.9,37.9,30.19,WNW,285,0.0,0.0,89,0.00,,,0.00,WeatherTracker,2013-02-14 10:58:00,
2013-02-14 03:03:00,40.8,37.5,30.19,WNW,285,0.0,0.0,88,0.00,,,0.00,WeatherTracker,2013-02-14 11:03:00,
2013-02-14 03:08:00,40.7,37.4,30.19,WNW,285,0.0,0.0,88,0.00,,,0.00,WeatherTracker,2013-02-14 11:08:00,
2013-02-14 03:13:00,40.6,37.6,30.18,WNW,285,0.0,0.0,89,0.00,,,0.00,WeatherTracker,2013-02-14 11:13:00,
2013-02-14 03:18:00,40.6,37.6,30.19,WNW,285,0.0,0.0,89,0.00,,,0.00,WeatherTracker,2013-02-14 11:18:00,
2013-02-14 03:23:00,40.5,37.5,30.18,WNW,285,0.0,0.0,89,0.00,,,0.00,WeatherTracker,2013-02-14 11:23:00,
2013-02-14 03:28:00,40.4,37.4,30.18,WNW,285,0.0,0.0,89,0.00,,,0.00,WeatherTracker,2013-02-14 11:28:00,
2013-02-14 03:33:00,40.2,37.2,30.18,WNW,285,0.0,0.0,89,0.00,,,0.00,WeatherTracker,2013-02-14 11:33:00,
2013-02-14 03:38:00,40.1,37.1,30.18,WNW,285,0.0,0.0,89,0.00,,,0.00,WeatherTracker,2013-02-14 11:38:00,
2013-02-14 03:43:00,40.0,37.0,30.18,WNW,285,0.0,0.0,89,0.00,,,0.00,WeatherTracker,2013-02-14 11:43:00,
2013-02-14 03:48:00,39.9,36.9,30.18,WNW,285,0.0,0.0,89,0.00,,,0.00,WeatherTracker,2013-02-14 11:48:00,
2013-02-14 03:53:00,39.8,36.8,30.18,WNW,285,0.0,0.0,89,0.00,,,0.00,WeatherTracker,2013-02-14 11:53:00,
2013-02-14 03:58:00,39.8,36.8,30.18,WNW,285,0.0,0.0,89,0.00,,,0.00,WeatherTracker,2013-02-14 11:58:00,
2013-02-14 04:03:00,39.7,36.7,30.18,WNW,285,0.0,0.0,89,0.00,,,0.00,WeatherTracker,2013-02-14 12:03:00,
2013-02-14 04:08:00,39.5,36.5,30.18,WNW,285,1.0,0.0,89,0.00,,,0.00,WeatherTracker,2013-02-14 12:08:00,
2013-02-14 04:13:00,39.5,36.8,30.18,WNW,285,0.0,0.0,90,0.00,,,0.00,WeatherTracker,2013-02-14 12:13:00,
2013-02-14 04:18:00,39.5,36.8,30.18,WNW,285,0.0,0.0,90,0.00,,,0.00,WeatherTracker,2013-02-14 12:18:00,
2013-02-14 04:23:00,39.6,36.9,30.18,WNW,285,1.0,0.0,90,0.00,,,0.00,WeatherTracker,2013-02-14 12:23:00,
2013-02-14 04:28:00,39.7,37.0,30.18,WNW,285,1.0,0.0,90,0.00,,,0.00,WeatherTracker,2013-02-14 12:28:00,
2013-02-14 04:33:00,39.6,36.9,30.18,WNW,285,0.0,0.0,90,0.00,,,0.00,WeatherTracker,2013-02-14 12:33:00,
2013-02-14 04:38:00,39.6,36.9,30.18,WNW,285,0.0,0.0,90,0.00,,,0.00,WeatherTracker,2013-02-14 12:38:00,
2013-02-14 04:44:00,39.4,36.4,30.18,WNW,285,0.0,0.0,89,0.00,,,0.00,WeatherTracker,2013-02-14 12:44:00,
2013-02-14 04:49:00,39.3,36.3,30.18,WNW,285,0.0,0.0,89,0.00,,,0.00,WeatherTracker,2013-02-14 12:49:00,
2013-02-14 04:54:00,39.2,36.2,30.18,WNW,285,0.0,0.0,89,0.00,,,0.00,WeatherTracker,2013-02-14 12:54:00,
2013-02-14 04:59:00,39.1,36.1,30.18,WNW,285,0.0,0.0,89,0.00,,,0.00,WeatherTracker,2013-02-14 12:59:00,
2013-02-14 05:04:00,38.9,35.9,30.18,WNW,285,0.0,0.0,89,0.00,,,0.00,WeatherTracker,2013-02-14 13:04:00,
2013-02-14 05:09:00,38.8,35.8,30.18,WNW,285,0.0,0.0,89,0.00,,,0.00,WeatherTracker,2013-02-14 13:09:00,
2013-02-14 05:14:00,38.6,35.9,30.18,WNW,285,0.0,0.0,90,0.00,,,0.00,WeatherTracker,2013-02-14 13:14:00,
2013-02-14 05:19:00,38.5,35.8,30.18,WNW,285,0.0,0.0,90,0.00,,,0.00,WeatherTracker,2013-02-14 13:19:00,
2013-02-14 05:24:00,38.4,35.7,30.18,WNW,285,0.0,0.0,90,0.00,,,0.00,WeatherTracker,2013-02-14 13:24:00,
2013-02-14 05:29:00,38.3,35.6,30.18,WNW,285,0.0,0.0,90,0.00,,,0.00,WeatherTracker,2013-02-14 13:29:00,
2013-02-14 05:34:00,38.2,35.8,30.18,WNW,285,0.0,0.0,91,0.00,,,0.00,WeatherTracker,2013-02-14 13:34:00,
2013-02-14 05:39:00,38.2,35.8,30.19,WNW,285,0.0,0.0,91,0.00,,,0.00,WeatherTracker,2013-02-14 13:39:00,
2013-02-14 05:44:00,38.2,35.8,30.18,WNW,285,0.0,0.0,91,0.00,,,0.00,WeatherTracker,2013-02-14 13:44:00,
2013-02-14 05:49:00,38.1,35.7,30.18,WNW,285,0.0,0.0,91,0.00,,,0.00,WeatherTracker,2013-02-14 13:49:00,
2013-02-14 05:54:00,38.0,35.6,30.18,WNW,285,0.0,0.0,91,0.00,,,0.00,WeatherTracker,2013-02-14 13:54:00,
2013-02-14 05:59:00,38.0,35.6,30.19,WNW,285,0.0,0.0,91,0.00,,,0.00,WeatherTracker,2013-02-14 13:59:00,
2013-02-14 06:04:00,37.9,35.5,30.18,WNW,285,0.0,0.0,91,0.00,,,0.00,WeatherTracker,2013-02-14 14:04:00,
2013-02-14 06:09:00,37.9,35.5,30.19,WNW,285,0.0,0.0,91,0.00,,,0.00,WeatherTracker,2013-02-14 14:09:00,
2013-02-14 06:15:00,37.8,35.4,30.19,WNW,285,0.0,0.0,91,0.00,,,0.00,WeatherTracker,2013-02-14 14:15:00,
2013-02-14 06:20:00,37.7,35.3,30.18,WNW,285,0.0,0.0,91,0.00,,,0.00,WeatherTracker,2013-02-14 14:20:00,
2013-02-14 06:25:00,37.7,35.3,30.18,WNW,285,0.0,0.0,91,0.00,,,0.00,WeatherTracker,2013-02-14 14:25:00,
2013-02-14 06:30:00,37.6,35.2,30.19,WNW,285,0.0,0.0,91,0.00,,,0.00,WeatherTracker,2013-02-14 14:30:00,
2013-02-14 06:35:00,37.4,35.0,30.19,WNW,285,0.0,0.0,91,0.00,,,0.00,WeatherTracker,2013-02-14 14:35:00,
2013-02-14 06:40:00,37.4,35.0,30.19,WNW,285,0.0,0.0,91,0.00,,,0.00,WeatherTracker,2013-02-14 14:40:00,
2013-02-14 06:45:00,37.3,34.9,30.19,WNW,285,0.0,0.0,91,0.00,,,0.00,WeatherTracker,2013-02-14 14:45:00,
2013-02-14 06:50:00,37.3,34.9,30.19,WNW,285,0.0,0.0,91,0.00,,,0.00,WeatherTracker,2013-02-14 14:50:00,
2013-02-14 06:55:00,37.2,34.8,30.19,WNW,285,0.0,0.0,91,0.00,,,0.00,WeatherTracker,2013-02-14 14:55:00,
2013-02-14 07:00:00,37.2,35.1,30.19,WNW,285,0.0,0.0,92,0.00,,,0.00,WeatherTracker,2013-02-14 15:00:00,
2013-02-14 07:05:00,37.2,35.1,30.19,WNW,285,0.0,0.0,92,0.00,,,0.00,WeatherTracker,2013-02-14 15:05:00,
2013-02-14 07:10:00,37.2,35.1,30.20,WNW,285,0.0,0.0,92,0.00,,,0.00,WeatherTracker,2013-02-14 15:10:00,
2013-02-14 07:15:00,37.1,35.0,30.20,WNW,285,0.0,0.0,92,0.00,,,0.00,WeatherTracker,2013-02-14 15:15:00,
2013-02-14 07:20:00,37.1,35.0,30.20,WNW,285,0.0,0.0,92,0.00,,,0.00,WeatherTracker,2013-02-14 15:20:00,
2013-02-14 07:25:00,37.1,35.0,30.20,WNW,285,0.0,0.0,92,0.00,,,0.00,WeatherTracker,2013-02-14 15:25:00,
2013-02-14 07:30:00,37.1,35.0,30.20,WNW,285,0.0,0.0,92,0.00,,,0.00,WeatherTracker,2013-02-14 15:30:00,
2013-02-14 07:35:00,37.1,35.0,30.20,WNW,285,0.0,0.0,92,0.00,,,0.00,WeatherTracker,2013-02-14 15:35:00,
2013-02-14 07:40:00,37.3,35.5,30.21,WNW,285,0.0,0.0,93,0.00,,,0.00,WeatherTracker,2013-02-14 15:40:00,
2013-02-14 07:45:00,37.5,35.7,30.21,WNW,285,0.0,0.0,93,0.00,,,0.00,WeatherTracker,2013-02-14 15:45:00,
2013-02-14 07:50:00,37.7,35.9,30.21,WNW,285,0.0,0.0,93,0.00,,,0.00,WeatherTracker,2013-02-14 15:50:00,
2013-02-14 07:55:00,37.9,36.1,30.21,WNW,285,0.0,0.0,93,0.00,,,0.00,WeatherTracker,2013-02-14 15:55:00,
2013-02-14 08:00:00,38.3,36.7,30.21,WNW,285,0.0,0.0,94,0.00,,,0.00,WeatherTracker,2013-02-14 16:00:00,
2013-02-14 08:05:00,38.9,37.3,30.21,WNW,285,0.0,0.0,94,0.00,,,0.00,WeatherTracker,2013-02-14 16:05:00,
2013-02-14 08:10:00,39.9,38.3,30.22,WNW,285,0.0,0.0,94,0.00,,,0.00,WeatherTracker,2013-02-14 16:10:00,
2013-02-14 08:15:00,41.0,39.4,30.22,WNW,285,0.0,0.0,94,0.00,,,0.00,WeatherTracker,2013-02-14 16:15:00,
2013-02-14 08:20:00,42.7,40.5,30.22,WNW,285,0.0,0.0,92,0.00,,,0.00,WeatherTracker,2013-02-14 16:20:00,
2013-02-14 08:25:00,44.3,41.3,30.21,WNW,285,0.0,0.0,89,0.00,,,0.00,WeatherTracker,2013-02-14 16:25:00,
2013-02-14 08:30:00,45.6,42.0,30.21,WNW,285,0.0,0.0,87,0.00,,,0.00,WeatherTracker,2013-02-14 16:30:00,
2013-02-14 08:35:00,46.8,42.5,30.21,WNW,285,0.0,0.0,85,0.00,,,0.00,WeatherTracker,2013-02-14 16:35:00,
2013-02-14 08:41:00,47.8,42.9,30.21,WNW,285,0.0,0.0,83,0.00,,,0.00,WeatherTracker,2013-02-14 16:41:00,
2013-02-14 08:46:00,48.6,43.4,30.21,WNW,285,0.0,0.0,82,0.00,,,0.00,WeatherTracker,2013-02-14 16:46:00,
2013-02-14 08:51:00,49.4,43.5,30.21,SSW,207,1.0,0.0,80,0.00,,,0.00,WeatherTracker,2013-02-14 16:51:00,
2013-02-14 08:56:00,49.9,43.6,30.21,SSW,207,1.0,0.0,79,0.00,,,0.00,WeatherTracker,2013-02-14 16:56:00,
2013-02-14 09:01:00,50.3,43.4,30.21,SSW,207,0.0,0.0,77,0.00,,,0.00,WeatherTracker,2013-02-14 17:01:00,
2013-02-14 09:06:00,50.8,43.9,30.21,SSW,207,0.0,0.0,77,0.00,,,0.00,WeatherTracker,2013-02-14 17:06:00,
2013-02-14 09:11:00,51.4,43.7,30.21,SSW,207,0.0,0.0,75,0.00,,,0.00,WeatherTracker,2013-02-14 17:11:00,
2013-02-14 09:16:00,52.2,43.8,30.21,SSW,207,0.0,0.0,73,0.00,,,0.00,WeatherTracker,2013-02-14 17:16:00,
2013-02-14 09:21:00,52.6,43.8,30.21,South,183,0.0,0.0,72,0.00,,,0.00,WeatherTracker,2013-02-14 17:21:00,
2013-02-14 09:26:00,53.0,43.9,30.21,SSW,206,2.0,0.0,71,0.00,,,0.00,WeatherTracker,2013-02-14 17:26:00,
2013-02-14 09:31:00,53.1,44.3,30.21,SSW,206,0.0,0.0,72,0.00,,,0.00,WeatherTracker,2013-02-14 17:31:00,
2013-02-14 09:36:00,53.3,44.1,30.21,South,180,2.0,0.0,71,0.00,,,0.00,WeatherTracker,2013-02-14 17:36:00,
2013-02-14 09:41:00,53.7,44.2,30.21,South,180,1.0,0.0,70,0.00,,,0.00,WeatherTracker,2013-02-14 17:41:00,
2013-02-14 09:46:00,54.1,44.2,30.21,South,180,1.0,0.0,69,0.00,,,0.00,WeatherTracker,2013-02-14 17:46:00,
2013-02-14 09:51:00,54.5,44.9,30.21,South,180,0.0,0.0,70,0.00,,,0.00,WeatherTracker,2013-02-14 17:51:00,
2013-02-14 09:56:00,54.8,44.8,30.21,SW,214,0.0,0.0,69,0.00,,,0.00,WeatherTracker,2013-02-14 17:56:00,
2013-02-14 10:01:00,55.2,44.4,30.21,South,187,1.0,0.0,67,0.00,,,0.00,WeatherTracker,2013-02-14 18:01:00,
2013-02-14 10:06:00,55.5,44.7,30.21,South,187,0.0,0.0,67,0.00,,,0.00,WeatherTracker,2013-02-14 18:06:00,
2013-02-14 10:11:00,56.0,45.2,30.21,South,186,0.0,0.0,67,0.00,,,0.00,WeatherTracker,2013-02-14 18:11:00,
2013-02-14 10:16:00,56.5,44.5,30.21,South,183,1.0,0.0,64,0.00,,,0.00,WeatherTracker,2013-02-14 18:16:00,
2013-02-14 10:21:00,56.9,45.3,30.21,South,176,0.0,0.0,65,0.00,,,0.00,WeatherTracker,2013-02-14 18:21:00,
2013-02-14 10:27:00,57.3,45.2,30.20,SW,234,2.0,0.0,64,0.00,,,0.00,WeatherTracker,2013-02-14 18:27:00,
2013-02-14 10:32:00,57.9,45.8,30.20,SW,216,2.0,0.0,64,0.00,,,0.00,WeatherTracker,2013-02-14 18:32:00,
2013-02-14 10:37:00,58.5,45.9,30.20,SW,215,1.0,0.0,63,0.00,,,0.00,WeatherTracker,2013-02-14 18:37:00,
2013-02-14 10:42:00,59.0,45.1,30.20,WSW,242,0.0,0.0,60,0.00,,,0.00,WeatherTracker,2013-02-14 18:42:00,
2013-02-14 10:47:00,59.5,45.2,30.19,WNW,290,2.0,0.0,59,0.00,,,0.00,WeatherTracker,2013-02-14 18:47:00,
2013-02-14 10:52:00,59.8,45.0,30.19,WNW,289,2.0,0.0,58,0.00,,,0.00,WeatherTracker,2013-02-14 18:52:00,
2013-02-14 10:57:00,59.8,45.4,30.19,West,270,3.0,0.0,59,0.00,,,0.00,WeatherTracker,2013-02-14 18:57:00,
2013-02-14 11:02:00,60.2,45.8,30.19,NW,306,3.0,0.0,59,0.00,,,0.00,WeatherTracker,2013-02-14 19:02:00,
2013-02-14 11:07:00,60.6,45.3,30.18,WNW,288,2.0,0.0,57,0.00,,,0.00,WeatherTracker,2013-02-14 19:07:00,
2013-02-14 11:12:00,60.8,45.9,30.18,WNW,290,0.0,0.0,58,0.00,,,0.00,WeatherTracker,2013-02-14 19:12:00,
2013-02-14 11:17:00,61.3,45.9,30.18,West,271,1.0,0.0,57,0.00,,,0.00,WeatherTracker,2013-02-14 19:17:00,
2013-02-14 11:22:00,61.8,46.4,30.18,SW,216,1.0,0.0,57,0.00,,,0.00,WeatherTracker,2013-02-14 19:22:00,
2013-02-14 11:27:00,62.2,46.3,30.18,WNW,283,2.0,0.0,56,0.00,,,0.00,WeatherTracker,2013-02-14 19:27:00,
2013-02-14 11:32:00,62.7,46.8,30.18,West,271,1.0,0.0,56,0.00,,,0.00,WeatherTracker,2013-02-14 19:32:00,
2013-02-14 11:37:00,63.2,46.8,30.17,WSW,248,4.0,0.0,55,0.00,,,0.00,WeatherTracker,2013-02-14 19:37:00,
2013-02-14 11:42:00,64.0,47.0,30.17,SW,225,3.0,0.0,54,0.00,,,0.00,WeatherTracker,2013-02-14 19:42:00,
2013-02-14 11:47:00,64.6,46.6,30.16,SW,232,1.0,0.0,52,0.00,,,0.00,WeatherTracker,2013-02-14 19:47:00,
2013-02-14 11:52:00,65.3,46.7,30.16,SW,225,2.0,0.0,51,0.00,,,0.00,WeatherTracker,2013-02-14 19:52:00,
2013-02-14 11:57:00,65.7,46.5,30.16,SSW,212,1.0,0.0,50,0.00,,,0.00,WeatherTracker,2013-02-14 19:57:00,
2013-02-14 12:02:00,65.8,46.6,30.16,West,262,1.0,0.0,50,0.00,,,0.00,WeatherTracker,2013-02-14 20:02:00,
2013-02-14 12:07:00,66.3,46.6,30.15,WSW,244,3.0,0.0,49,0.00,,,0.00,WeatherTracker,2013-02-14 20:07:00,
2013-02-14 12:12:00,66.8,46.5,30.15,NW,305,2.0,0.0,48,0.00,,,0.00,WeatherTracker,2013-02-14 20:12:00,
2013-02-14 12:18:00,67.4,47.0,30.14,WNW,284,3.0,0.0,48,0.00,,,0.00,WeatherTracker,2013-02-14 20:18:00,
2013-02-14 12:23:00,67.9,46.9,30.14,SW,235,5.0,0.0,47,0.00,,,0.00,WeatherTracker,2013-02-14 20:23:00,
2013-02-14 12:28:00,68.3,46.7,30.14,WSW,248,1.0,0.0,46,0.00,,,0.00,WeatherTracker,2013-02-14 20:28:00,
2013-02-14 12:33:00,68.5,46.3,30.14,SSW,200,2.0,0.0,45,0.00,,,0.00,WeatherTracker,2013-02-14 20:33:00,
2013-02-14 12:38:00,68.8,46.0,30.14,WNW,292,2.0,0.0,44,0.00,,,0.00,WeatherTracker,2013-02-14 20:38:00,
2013-02-14 12:43:00,69.2,45.7,30.14,WNW,285,4.0,0.0,43,0.00,,,0.00,WeatherTracker,2013-02-14 20:43:00,
2013-02-14 12:48:00,69.6,44.2,30.14,WSW,248,4.0,0.0,40,0.00,,,0.00,WeatherTracker,2013-02-14 20:48:00,
2013-02-14 12:53:00,70.2,44.7,30.14,WNW,302,4.0,0.0,40,0.00,,,0.00,WeatherTracker,2013-02-14 20:53:00,
2013-02-14 12:58:00,70.5,43.7,30.14,ENE,77,3.0,0.0,38,0.00,,,0.00,WeatherTracker,2013-02-14 20:58:00,
2013-02-14 13:03:00,70.7,44.5,30.14,NW,312,2.0,0.0,39,0.00,,,0.00,WeatherTracker,2013-02-14 21:03:00,
2013-02-14 13:08:00,71.3,43.7,30.14,NE,42,3.0,0.0,37,0.00,,,0.00,WeatherTracker,2013-02-14 21:08:00,
2013-02-14 13:13:00,71.9,41.2,30.13,NNE,22,13.0,0.0,33,0.00,,,0.00,WeatherTracker,2013-02-14 21:13:00,
2013-02-14 13:18:00,72.6,40.2,30.13,ENE,73,4.0,0.0,31,0.00,,,0.00,WeatherTracker,2013-02-14 21:18:00,
2013-02-14 13:23:00,73.0,40.6,30.13,NE,39,5.0,0.0,31,0.00,,,0.00,WeatherTracker,2013-02-14 21:23:00,
2013-02-14 13:28:00,73.4,40.9,30.13,ENE,66,3.0,0.0,31,0.00,,,0.00,WeatherTracker,2013-02-14 21:28:00,
2013-02-14 13:33:00,73.3,40.0,30.13,NNE,24,3.0,0.0,30,0.00,,,0.00,WeatherTracker,2013-02-14 21:33:00,
2013-02-14 13:38:00,73.2,39.9,30.13,ENE,69,9.0,0.0,30,0.00,,,0.00,WeatherTracker,2013-02-14 21:38:00,
2013-02-14 13:43:00,73.1,39.8,30.12,NNE,31,8.0,0.0,30,0.00,,,0.00,WeatherTracker,2013-02-14 21:43:00,
2013-02-14 13:49:00,73.0,40.6,30.12,NNW,346,5.0,0.0,31,0.00,,,0.00,WeatherTracker,2013-02-14 21:49:00,
2013-02-14 13:54:00,73.5,40.2,30.11,NNE,15,8.0,0.0,30,0.00,,,0.00,WeatherTracker,2013-02-14 21:54:00,
2013-02-14 13:59:00,73.7,39.5,30.11,NNE,29,3.0,0.0,29,0.00,,,0.00,WeatherTracker,2013-02-14 21:59:00,
2013-02-14 14:04:00,73.7,39.5,30.11,NNE,16,3.0,0.0,29,0.00,,,0.00,WeatherTracker,2013-02-14 22:04:00,
2013-02-14 14:09:00,73.8,40.4,30.11,ENE,57,2.0,0.0,30,0.00,,,0.00,WeatherTracker,2013-02-14 22:09:00,
2013-02-14 14:14:00,73.8,39.5,30.11,NNE,32,2.0,0.0,29,0.00,,,0.00,WeatherTracker,2013-02-14 22:14:00,
2013-02-14 14:19:00,73.8,39.5,30.12,NNE,32,6.0,0.0,29,0.00,,,0.00,WeatherTracker,2013-02-14 22:19:00,
2013-02-14 14:24:00,73.7,40.3,30.12,NE,46,5.0,0.0,30,0.00,,,0.00,WeatherTracker,2013-02-14 22:24:00,
2013-02-14 14:29:00,73.8,39.5,30.11,NNE,30,6.0,0.0,29,0.00,,,0.00,WeatherTracker,2013-02-14 22:29:00,
2013-02-14 14:34:00,73.8,40.4,30.11,NNE,19,6.0,0.0,30,0.00,,,0.00,WeatherTracker,2013-02-14 22:34:00,
2013-02-14 14:39:00,73.8,39.5,30.11,ENE,69,4.0,0.0,29,0.00,,,0.00,WeatherTracker,2013-02-14 22:39:00,
2013-02-14 14:44:00,73.7,39.5,30.11,NNE,25,9.0,0.0,29,0.00,,,0.00,WeatherTracker,2013-02-14 22:44:00,
2013-02-14 14:49:00,73.5,39.3,30.11,ENE,65,13.0,0.0,29,0.00,,,0.00,WeatherTracker,2013-02-14 22:49:00,
2013-02-14 14:54:00,73.7,38.6,30.11,North,11,7.0,0.0,28,0.00,,,0.00,WeatherTracker,2013-02-14 22:54:00,
2013-02-14 14:59:00,74.0,38.8,30.11,NNE,33,4.0,0.0,28,0.00,,,0.00,WeatherTracker,2013-02-14 22:59:00,
2013-02-14 15:04:00,74.0,37.9,30.11,NE,34,4.0,0.0,27,0.00,,,0.00,WeatherTracker,2013-02-14 23:04:00,
2013-02-14 15:09:00,74.1,38.9,30.11,ENE,70,3.0,0.0,28,0.00,,,0.00,WeatherTracker,2013-02-14 23:09:00,
2013-02-14 15:14:00,73.9,38.7,30.11,North,355,12.0,0.0,28,0.00,,,0.00,WeatherTracker,2013-02-14 23:14:00,
2013-02-14 15:19:00,73.8,38.6,30.11,NE,42,5.0,0.0,28,0.00,,,0.00,WeatherTracker,2013-02-14 23:19:00,
2013-02-14 15:24:00,73.8,38.6,30.11,NNE,17,2.0,0.0,28,0.00,,,0.00,WeatherTracker,2013-02-14 23:24:00,
2013-02-14 15:29:00,73.8,39.5,30.11,NNE,21,3.0,0.0,29,0.00,,,0.00,WeatherTracker,2013-02-14 23:29:00,
2013-02-14 15:34:00,73.8,38.6,30.11,North,5,2.0,0.0,28,0.00,,,0.00,WeatherTracker,2013-02-14 23:34:00,
2013-02-14 15:39:00,73.9,39.6,30.11,NW,322,3.0,0.0,29,0.00,,,0.00,WeatherTracker,2013-02-14 23:39:00,
2013-02-14 15:44:00,73.9,38.7,30.11,NE,39,2.0,0.0,28,0.00,,,0.00,WeatherTracker,2013-02-14 23:44:00,
2013-02-14 15:49:00,73.9,38.7,30.11,NNE,26,4.0,0.0,28,0.00,,,0.00,WeatherTracker,2013-02-14 23:49:00,
2013-02-14 15:55:00,73.9,39.6,30.11,NNE,30,0.0,0.0,29,0.00,,,0.00,WeatherTracker,2013-02-14 23:55:00,
2013-02-14 16:00:00,73.9,38.7,30.11,NNE,30,7.0,0.0,28,0.00,,,0.00,WeatherTracker,2013-02-15 00:00:00,
2013-02-14 16:05:00,73.8,38.6,30.11,North,5,3.0,0.0,28,0.00,,,0.00,WeatherTracker,2013-02-15 00:05:00,
2013-02-14 16:10:00,73.7,38.6,30.11,NNE,20,4.0,0.0,28,0.00,,,0.00,WeatherTracker,2013-02-15 00:10:00,
2013-02-14 16:15:00,73.5,38.4,30.11,NNE,15,8.0,0.0,28,0.00,,,0.00,WeatherTracker,2013-02-15 00:15:00,
2013-02-14 16:20:00,73.3,38.2,30.11,North,9,5.0,0.0,28,0.00,,,0.00,WeatherTracker,2013-02-15 00:20:00,
2013-02-14 16:25:00,73.1,38.0,30.11,NE,46,3.0,0.0,28,0.00,,,0.00,WeatherTracker,2013-02-15 00:25:00,
2013-02-14 16:30:00,72.8,38.7,30.11,NNE,19,3.0,0.0,29,0.00,,,0.00,WeatherTracker,2013-02-15 00:30:00,
2013-02-14 16:35:00,72.6,39.4,30.11,NE,48,3.0,0.0,30,0.00,,,0.00,WeatherTracker,2013-02-15 00:35:00,
2013-02-14 16:40:00,72.2,39.0,30.11,NNE,23,5.0,0.0,30,0.00,,,0.00,WeatherTracker,2013-02-15 00:40:00,
2013-02-14 16:45:00,72.0,38.9,30.11,NNE,26,5.0,0.0,30,0.00,,,0.00,WeatherTracker,2013-02-15 00:45:00,
2013-02-14 16:50:00,71.8,40.3,30.11,ENE,69,2.0,0.0,32,0.00,,,0.00,WeatherTracker,2013-02-15 00:50:00,
2013-02-14 16:55:00,71.6,40.2,30.11,NNE,15,1.0,0.0,32,0.00,,,0.00,WeatherTracker,2013-02-15 00:55:00,
2013-02-14 17:00:00,71.2,40.6,30.11,ENE,74,3.0,0.0,33,0.00,,,0.00,WeatherTracker,2013-02-15 01:00:00,
2013-02-14 17:06:00,70.9,40.4,30.11,NE,43,0.0,0.0,33,0.00,,,0.00,WeatherTracker,2013-02-15 01:06:00,
2013-02-14 17:11:00,70.6,40.9,30.11,ENE,71,5.0,0.0,34,0.00,,,0.00,WeatherTracker,2013-02-15 01:11:00,
2013-02-14 17:16:00,70.3,40.6,30.11,East,91,5.0,0.0,34,0.00,,,0.00,WeatherTracker,2013-02-15 01:16:00,
2013-02-14 17:20:00,70.0,41.1,30.11,East,88,1.0,0.0,35,0.00,,,0.00,WeatherTracker,2013-02-15 01:20:00,
2013-02-14 17:26:00,69.6,41.5,30.11,East,88,2.0,0.0,36,0.00,,,0.00,WeatherTracker,2013-02-15 01:26:00,
2013-02-14 17:31:00,69.2,41.8,30.11,East,88,1.0,0.0,37,0.00,,,0.00,WeatherTracker,2013-02-15 01:31:00,
2013-02-14 17:36:00,68.8,41.5,30.12,East,88,0.0,0.0,37,0.00,,,0.00,WeatherTracker,2013-02-15 01:36:00,
2013-02-14 17:41:00,68.3,41.7,30.12,East,91,1.0,0.0,38,0.00,,,0.00,WeatherTracker,2013-02-15 01:41:00,
2013-02-14 17:46:00,67.8,43.2,30.12,East,99,1.0,0.0,41,0.00,,,0.00,WeatherTracker,2013-02-15 01:46:00,
2013-02-14 17:51:00,67.3,45.2,30.12,East,99,0.0,0.0,45,0.00,,,0.00,WeatherTracker,2013-02-15 01:51:00,
2013-02-14 17:56:00,66.8,46.5,30.12,East,99,0.0,0.0,48,0.00,,,0.00,WeatherTracker,2013-02-15 01:56:00,
2013-02-14 18:01:00,66.3,46.6,30.12,East,99,0.0,0.0,49,0.00,,,0.00,WeatherTracker,2013-02-15 02:01:00,
2013-02-14 18:06:00,65.6,46.5,30.12,East,99,0.0,0.0,50,0.00,,,0.00,WeatherTracker,2013-02-15 02:06:00,
2013-02-14 18:11:00,65.0,46.9,30.12,East,99,0.0,0.0,52,0.00,,,0.00,WeatherTracker,2013-02-15 02:11:00,
2013-02-14 18:16:00,64.3,46.8,30.12,East,99,0.0,0.0,53,0.00,,,0.00,WeatherTracker,2013-02-15 02:16:00,
2013-02-14 18:21:00,63.7,46.7,30.12,ESE,105,1.0,0.0,54,0.00,,,0.00,WeatherTracker,2013-02-15 02:21:00,
2013-02-14 18:26:00,63.0,46.6,30.13,South,181,0.0,0.0,55,0.00,,,0.00,WeatherTracker,2013-02-15 02:26:00,
2013-02-14 18:31:00,62.4,46.5,30.13,South,181,0.0,0.0,56,0.00,,,0.00,WeatherTracker,2013-02-15 02:31:00,
2013-02-14 18:36:00,61.8,46.4,30.13,South,181,0.0,0.0,57,0.00,,,0.00,WeatherTracker,2013-02-15 02:36:00,
2013-02-14 18:41:00,61.3,46.4,30.13,South,181,0.0,0.0,58,0.00,,,0.00,WeatherTracker,2013-02-15 02:41:00,
2013-02-14 18:46:00,60.7,46.3,30.13,South,181,0.0,0.0,59,0.00,,,0.00,WeatherTracker,2013-02-15 02:46:00,
2013-02-14 18:51:00,60.2,46.3,30.13,South,181,1.0,0.0,60,0.00,,,0.00,WeatherTracker,2013-02-15 02:51:00,
2013-02-14 18:56:00,59.6,46.1,30.14,South,181,0.0,0.0,61,0.00,,,0.00,WeatherTracker,2013-02-15 02:56:00,
2013-02-14 19:02:00,59.2,46.2,30.14,South,181,0.0,0.0,62,0.00,,,0.00,WeatherTracker,2013-02-15 03:02:00,
2013-02-14 19:07:00,58.7,45.7,30.14,South,181,0.0,0.0,62,0.00,,,0.00,WeatherTracker,2013-02-15 03:07:00,
2013-02-14 19:12:00,58.3,45.8,30.14,South,181,0.0,0.0,63,0.00,,,0.00,WeatherTracker,2013-02-15 03:12:00,
2013-02-14 19:17:00,57.8,45.7,30.14,South,181,0.0,0.0,64,0.00,,,0.00,WeatherTracker,2013-02-15 03:17:00,
2013-02-14 19:22:00,57.4,45.7,30.14,South,181,0.0,0.0,65,0.00,,,0.00,WeatherTracker,2013-02-15 03:22:00,
2013-02-14 19:27:00,57.1,45.4,30.14,South,181,0.0,0.0,65,0.00,,,0.00,WeatherTracker,2013-02-15 03:27:00,
2013-02-14 19:32:00,56.7,45.5,30.14,South,181,0.0,0.0,66,0.00,,,0.00,WeatherTracker,2013-02-15 03:32:00,
2013-02-14 19:37:00,56.4,45.2,30.13,South,181,0.0,0.0,66,0.00,,,0.00,WeatherTracker,2013-02-15 03:37:00,
2013-02-14 19:42:00,56.1,44.9,30.14,South,181,0.0,0.0,66,0.00,,,0.00,WeatherTracker,2013-02-15 03:42:00,
2013-02-14 19:47:00,55.7,44.9,30.13,South,181,0.0,0.0,67,0.00,,,0.00,WeatherTracker,2013-02-15 03:47:00,
2013-02-14 19:52:00,55.4,45.0,30.13,South,181,0.0,0.0,68,0.00,,,0.00,WeatherTracker,2013-02-15 03:52:00,
2013-02-14 19:57:00,55.1,44.7,30.13,South,181,0.0,0.0,68,0.00,,,0.00,WeatherTracker,2013-02-15 03:57:00,
2013-02-14 20:02:00,54.8,45.2,30.13,South,181,0.0,0.0,70,0.00,,,0.00,WeatherTracker,2013-02-15 04:02:00,
2013-02-14 20:07:00,54.6,44.6,30.13,South,181,0.0,0.0,69,0.00,,,0.00,WeatherTracker,2013-02-15 04:07:00,
2013-02-14 20:12:00,54.4,44.8,30.13,South,181,0.0,0.0,70,0.00,,,0.00,WeatherTracker,2013-02-15 04:12:00,
2013-02-14 20:17:00,54.1,44.5,30.13,South,181,0.0,0.0,70,0.00,,,0.00,WeatherTracker,2013-02-15 04:17:00,
2013-02-14 20:22:00,53.9,44.3,30.13,South,181,0.0,0.0,70,0.00,,,0.00,WeatherTracker,2013-02-15 04:22:00,
2013-02-14 20:27:00,53.6,44.4,30.14,South,181,0.0,0.0,71,0.00,,,0.00,WeatherTracker,2013-02-15 04:27:00,
2013-02-14 20:32:00,53.3,44.5,30.14,South,181,0.0,0.0,72,0.00,,,0.00,WeatherTracker,2013-02-15 04:32:00,
2013-02-14 20:37:00,53.0,44.2,30.14,South,181,0.0,0.0,72,0.00,,,0.00,WeatherTracker,2013-02-15 04:37:00,
2013-02-14 20:42:00,52.6,43.8,30.14,South,181,0.0,0.0,72,0.00,,,0.00,WeatherTracker,2013-02-15 04:42:00,
2013-02-14 20:47:00,52.3,43.5,30.14,South,181,1.0,0.0,72,0.00,,,0.00,WeatherTracker,2013-02-15 04:47:00,
2013-02-14 20:52:00,52.1,43.7,30.14,West,279,0.0,0.0,73,0.00,,,0.00,WeatherTracker,2013-02-15 04:52:00,
2013-02-14 20:58:00,52.0,43.6,30.14,West,279,0.0,0.0,73,0.00,,,0.00,WeatherTracker,2013-02-15 04:58:00,
2013-02-14 21:00:00,51.9,43.5,30.14,West,279,0.0,0.0,73,0.00,,,0.00,WeatherTracker,2013-02-15 05:00:00,
2013-02-14 21:01:00,51.8,43.4,30.14,West,279,0.0,0.0,73,0.00,,,0.00,WeatherTracker,2013-02-15 05:01:00,
2013-02-14 21:06:00,51.5,43.1,30.14,West,279,0.0,0.0,73,0.00,,,0.00,WeatherTracker,2013-02-15 05:06:00,
2013-02-14 21:11:00,51.2,42.8,30.14,West,279,0.0,0.0,73,0.00,,,0.00,WeatherTracker,2013-02-15 05:11:00,
2013-02-14 21:16:00,50.9,42.6,30.14,West,279,0.0,0.0,73,0.00,,,0.00,WeatherTracker,2013-02-15 05:16:00,
2013-02-14 21:21:00,50.6,42.6,30.14,West,279,0.0,0.0,74,0.00,,,0.00,WeatherTracker,2013-02-15 05:21:00,
2013-02-14 21:26:00,50.3,42.3,30.15,West,279,0.0,0.0,74,0.00,,,0.00,WeatherTracker,2013-02-15 05:26:00,
2013-02-14 21:31:00,49.9,42.3,30.15,West,279,0.0,0.0,75,0.00,,,0.00,WeatherTracker,2013-02-15 05:31:00,
2013-02-14 21:36:00,49.6,42.0,30.15,West,279,0.0,0.0,75,0.00,,,0.00,WeatherTracker,2013-02-15 05:36:00,
2013-02-14 21:41:00,49.3,42.1,30.15,West,279,0.0,0.0,76,0.00,,,0.00,WeatherTracker,2013-02-15 05:41:00,
2013-02-14 21:46:00,49.0,41.8,30.15,West,279,0.0,0.0,76,0.00,,,0.00,WeatherTracker,2013-02-15 05:46:00,
2013-02-14 21:51:00,48.8,41.6,30.15,West,279,0.0,0.0,76,0.00,,,0.00,WeatherTracker,2013-02-15 05:51:00,
2013-02-14 21:56:00,48.5,41.3,30.15,West,279,0.0,0.0,76,0.00,,,0.00,WeatherTracker,2013-02-15 05:56:00,
2013-02-14 22:01:00,48.3,41.4,30.16,West,279,0.0,0.0,77,0.00,,,0.00,WeatherTracker,2013-02-15 06:01:00,
2013-02-14 22:06:00,48.0,41.1,30.16,West,279,0.0,0.0,77,0.00,,,0.00,WeatherTracker,2013-02-15 06:06:00,
2013-02-14 22:11:00,47.8,41.3,30.16,West,279,0.0,0.0,78,0.00,,,0.00,WeatherTracker,2013-02-15 06:11:00,
2013-02-14 22:16:00,47.6,41.1,30.16,West,279,0.0,0.0,78,0.00,,,0.00,WeatherTracker,2013-02-15 06:16:00,
2013-02-14 22:22:00,47.4,41.2,30.16,West,279,0.0,0.0,79,0.00,,,0.00,WeatherTracker,2013-02-15 06:22:00,
2013-02-14 22:27:00,47.2,41.0,30.16,West,279,0.0,0.0,79,0.00,,,0.00,WeatherTracker,2013-02-15 06:27:00,
2013-02-14 22:32:00,47.0,40.8,30.17,West,279,0.0,0.0,79,0.00,,,0.00,WeatherTracker,2013-02-15 06:32:00,
2013-02-14 22:37:00,46.8,40.6,30.17,West,279,0.0,0.0,79,0.00,,,0.00,WeatherTracker,2013-02-15 06:37:00,
2013-02-14 22:42:00,46.7,40.9,30.17,West,279,0.0,0.0,80,0.00,,,0.00,WeatherTracker,2013-02-15 06:42:00,
2013-02-14 22:47:00,46.6,40.8,30.17,West,279,0.0,0.0,80,0.00,,,0.00,WeatherTracker,2013-02-15 06:47:00,
2013-02-14 22:52:00,46.5,40.7,30.17,West,279,0.0,0.0,80,0.00,,,0.00,WeatherTracker,2013-02-15 06:52:00,
2013-02-14 22:57:00,46.3,40.5,30.17,West,279,0.0,0.0,80,0.00,,,0.00,WeatherTracker,2013-02-15 06:57:00,
2013-02-14 23:02:00,46.2,40.4,30.17,West,279,0.0,0.0,80,0.00,,,0.00,WeatherTracker,2013-02-15 07:02:00,
2013-02-14 23:07:00,46.1,40.6,30.17,West,279,0.0,0.0,81,0.00,,,0.00,WeatherTracker,2013-02-15 07:07:00,
2013-02-14 23:12:00,45.9,40.4,30.17,West,279,0.0,0.0,81,0.00,,,0.00,WeatherTracker,2013-02-15 07:12:00,
2013-02-14 23:17:00,45.8,40.3,30.17,West,279,0.0,0.0,81,0.00,,,0.00,WeatherTracker,2013-02-15 07:17:00,
2013-02-14 23:22:00,45.7,40.2,30.17,West,279,0.0,0.0,81,0.00,,,0.00,WeatherTracker,2013-02-15 07:22:00,
2013-02-14 23:27:00,45.6,40.4,30.17,West,279,0.0,0.0,82,0.00,,,0.00,WeatherTracker,2013-02-15 07:27:00,
2013-02-14 23:32:00,45.4,40.2,30.17,West,279,0.0,0.0,82,0.00,,,0.00,WeatherTracker,2013-02-15 07:32:00,
2013-02-14 23:37:00,45.4,40.2,30.17,West,279,0.0,0.0,82,0.00,,,0.00,WeatherTracker,2013-02-15 07:37:00,
2013-02-14 23:42:00,45.2,40.0,30.17,West,279,0.0,0.0,82,0.00,,,0.00,WeatherTracker,2013-02-15 07:42:00,
2013-02-14 23:47:00,45.1,39.9,30.17,West,279,0.0,0.0,82,0.00,,,0.00,WeatherTracker,2013-02-15 07:47:00,
2013-02-14 23:52:00,45.0,39.8,30.17,West,279,0.0,0.0,82,0.00,,,0.00,WeatherTracker,2013-02-15 07:52:00,
2013-02-14 23:57:00,44.9,40.1,30.18,West,279,0.0,0.0,83,0.00,,,0.00,WeatherTracker,2013-02-15 07:57:00,